Time;durP1;ratioP1;P1;durP2;ratioP2;P2;SDS_P1;SDS_P2;PMS_P1;PMS_P2;Temp;Humidity;BMP_temperature;BMP_pressure;BME280_temperature;BME280_humidity;BME280_pressure;Samples;Min_cycle;Max_cycle;Signal;HPM_P1;HPM_P2
2023/01/11 00:01:59;;;;;;;2.30;2.10;;;9.10;91.10;;;11.18;66.44;100633.16;5034427;28;20187;-54
2023/01/11 00:04:29;;;;;;;2.60;2.20;;;9.10;90.90;;;11.09;66.48;100626.34;5033625;28;20195;-55
2023/01/11 00:06:56;;;;;;;2.30;1.77;;;9.10;90.90;;;11.22;66.45;100624.72;5033716;28;20205;-53
2023/01/11 00:09:24;;;;;;;2.30;2.10;;;9.10;90.90;;;11.23;66.26;100615.00;5033743;28;20187;-54
2023/01/11 00:11:51;;;;;;;3.60;2.20;;;9.10;90.90;;;11.19;66.71;100624.28;5019760;28;20287;-54
2023/01/11 00:14:19;;;;;;;3.13;1.93;;;9.10;90.90;;;11.21;66.55;100603.81;5014362;28;20195;-54
2023/01/11 00:16:46;;;;;;;2.47;2.07;;;9.10;90.90;;;11.23;66.80;100615.00;5027715;28;20206;-56
2023/01/11 00:19:13;;;;;;;2.97;2.20;;;9.10;90.90;;;11.24;66.80;100601.66;5034645;28;20221;-52
2023/01/11 00:21:40;;;;;;;3.30;2.20;;;9.10;90.90;;;11.33;66.12;100605.00;5034335;28;20201;-56
2023/01/11 00:24:07;;;;;;;4.40;1.93;;;9.20;90.90;;;11.35;66.45;100597.72;5033101;28;20191;-56
2023/01/11 00:26:34;;;;;;;4.43;2.10;;;9.20;91.00;;;11.33;66.84;100607.63;5021235;28;20297;-54
2023/01/11 00:29:01;;;;;;;3.97;1.90;;;9.20;91.00;;;11.33;66.58;100597.09;5013745;28;20207;-52
2023/01/11 00:31:29;;;;;;;2.57;1.83;;;9.20;91.00;;;11.39;66.70;100610.34;5013830;28;20198;-53
2023/01/11 00:33:56;;;;;;;2.87;1.97;;;9.20;90.90;;;11.47;66.59;100607.63;5013767;28;20732;-55
2023/01/11 00:36:23;;;;;;;3.10;1.87;;;9.30;90.90;;;11.46;66.08;100594.63;5014067;28;20207;-55
2023/01/11 00:38:52;;;;;;;2.97;1.90;;;9.30;90.90;;;11.43;66.21;100590.53;5014176;28;20660;-54
2023/01/11 00:49:41;;;;;;;2.87;2.13;;;9.40;90.70;;;11.52;65.99;100571.00;5033587;28;20170;-53
2023/01/11 00:52:09;;;;;;;2.13;1.90;;;9.40;90.70;;;11.49;66.30;100563.47;5033529;28;20214;-52
2023/01/11 00:54:36;;;;;;;2.43;1.80;;;9.40;90.80;;;11.39;66.93;100567.38;5024376;28;20206;-52
2023/01/11 00:57:06;;;;;;;2.37;1.70;;;9.40;90.90;;;11.46;67.12;100563.00;5030700;28;20205;-53
2023/01/11 00:59:33;;;;;;;1.80;1.70;;;9.40;90.90;;;11.53;67.05;100563.88;5033713;28;20241;-53
2023/01/11 01:02:01;;;;;;;1.93;1.73;;;9.50;91.00;;;11.62;66.48;100557.53;5034766;28;20657;-56
2023/01/11 01:04:28;;;;;;;2.67;2.40;;;9.50;91.10;;;11.61;67.11;100555.06;5032981;28;20194;-55
2023/01/11 01:06:55;;;;;;;3.17;2.00;;;9.50;91.20;;;11.56;67.17;100548.53;5028709;28;20211;-53
2023/01/11 01:09:22;;;;;;;3.50;2.30;;;9.50;91.30;;;11.63;67.41;100539.88;5014843;28;20190;-55
2023/01/11 01:11:49;;;;;;;4.70;2.23;;;9.60;91.30;;;11.60;67.42;100543.69;5018391;28;20718;-56
2023/01/11 01:14:27;;;;;;;2.67;2.03;;;9.50;91.30;;;11.65;67.71;100551.06;5024578;28;20226;-56
2023/01/11 01:16:56;;;;;;;2.33;2.10;;;9.60;91.40;;;11.69;67.20;100531.28;5038077;28;20194;-55
2023/01/11 01:19:26;;;;;;;3.43;2.60;;;9.60;91.50;;;11.71;67.54;100543.25;5038630;28;20218;-55
2023/01/11 01:21:55;;;;;;;3.23;2.33;;;9.60;91.40;;;11.77;67.48;100549.59;5037743;28;20210;-54
2023/01/11 01:24:23;;;;;;;1.93;1.83;;;9.60;91.50;;;11.84;67.27;100540.75;5030876;28;20199;-56
2023/01/11 01:26:50;;;;;;;2.37;2.17;;;9.60;91.50;;;11.91;67.17;100539.00;5017209;28;20195;-53
2023/01/11 01:29:17;;;;;;;4.37;2.43;;;9.70;91.40;;;11.82;66.83;100529.56;5017076;28;20695;-53
2023/01/11 01:31:44;;;;;;;2.30;2.00;;;9.60;91.40;;;11.93;66.74;100529.06;5017232;28;20191;-54
2023/01/11 01:34:12;;;;;;;2.00;1.90;;;9.70;91.40;;;11.95;66.56;100537.63;5017606;28;20206;-55
2023/01/11 01:36:40;;;;;;;2.30;2.10;;;9.70;91.30;;;11.93;66.82;100517.72;5016703;28;20210;-57
2023/01/11 01:39:10;;;;;;;1.93;1.83;;;9.70;91.30;;;11.92;66.90;100522.19;5017093;28;20207;-54
2023/01/11 01:41:37;;;;;;;3.40;2.20;;;9.70;91.30;;;11.97;66.78;100514.53;5017257;28;20187;-52
2023/01/11 01:44:52;;;;;;;2.10;1.90;;;9.80;91.40;;;11.98;66.73;100510.06;5016817;28;20252;-54
2023/01/11 01:47:25;;;;;;;2.40;2.17;;;9.80;91.40;;;12.03;66.52;100508.47;5016952;28;20211;-54
2023/01/11 01:49:53;;;;;;;2.03;1.83;;;9.80;91.30;;;12.05;66.65;100513.59;5016610;28;20199;-53
2023/01/11 01:52:27;;;;;;;2.87;2.00;;;9.90;91.30;;;11.99;66.79;100501.97;5026614;28;20198;-54
2023/01/11 01:55:00;;;;;;;2.63;2.43;;;9.90;91.50;;;12.00;66.91;100508.88;5039062;28;20252;-61
2023/01/11 01:57:34;;;;;;;3.50;2.27;;;9.90;91.50;;;12.01;67.42;100494.66;5016951;28;20293;-54
2023/01/11 02:00:07;;;;;;;2.50;2.30;;;9.90;91.50;;;12.07;67.30;100488.66;5016854;28;20585;-54
2023/01/11 02:02:36;;;;;;;2.50;2.30;;;9.90;91.60;;;11.99;67.77;100495.84;5016963;28;20195;-53
2023/01/11 02:05:06;;;;;;;2.67;2.47;;;9.90;91.70;;;11.92;68.21;100494.97;5018168;28;20218;-57
2023/01/11 02:07:39;;;;;;;2.37;2.17;;;9.90;91.80;;;11.91;68.51;100494.16;5019082;28;20215;-56
2023/01/11 02:10:11;;;;;;;2.87;2.67;;;9.90;91.90;;;11.95;68.43;100490.16;5017335;28;20191;-54
2023/01/11 02:12:45;;;;;;;4.57;2.40;;;9.90;92.00;;;12.01;68.04;100491.19;5016306;28;20198;-54
2023/01/11 02:15:13;;;;;;;2.47;2.27;;;9.90;92.10;;;12.13;67.83;100493.16;5027639;28;20183;-53
2023/01/11 02:17:41;;;;;;;3.03;2.20;;;10.00;91.50;;;12.14;68.08;100481.59;5036314;28;20210;-53
2023/01/11 02:20:25;;;;;;;2.83;2.63;;;9.90;92.10;;;12.14;68.24;100489.53;5035850;28;20680;-53
2023/01/11 02:23:40;;;;;;;2.87;2.67;;;10.00;91.70;;;12.13;68.15;100477.31;5038430;28;20261;-54
2023/01/11 02:27:02;;;;;;;3.10;2.77;;;10.00;91.70;;;12.02;68.88;100475.22;5016971;28;20196;-56
2023/01/11 02:29:43;;;;;;;2.90;2.33;;;10.00;91.80;;;12.16;68.22;100482.22;5016221;28;20613;-56
2023/01/11 02:32:26;;;;;;;2.50;2.00;;;10.10;91.80;;;12.23;68.26;100467.25;5016388;28;20201;-53
2023/01/11 02:35:12;;;;;;;1.73;1.63;;;10.10;91.80;;;12.26;68.32;100471.34;5023969;28;20190;-54
2023/01/11 02:37:59;;;;;;;2.60;2.40;;;10.10;91.70;;;12.30;68.23;100466.47;5015790;28;20218;-54
2023/01/11 02:40:51;;;;;;;3.10;2.43;;;10.10;91.70;;;12.33;67.70;100471.38;5018237;28;20207;-55
2023/01/11 02:46:29;;;;;;;2.10;2.00;;;10.20;91.50;;;12.46;67.45;100466.16;5000003;28;20200;-55
2023/01/11 02:49:07;;;;;;;2.43;2.23;;;10.20;91.50;;;12.37;68.05;100472.63;5008045;28;20219;-54
2023/01/11 02:51:41;;;;;;;3.53;2.23;;;10.30;91.50;;;12.44;67.84;100455.00;5016594;28;20199;-55
2023/01/11 02:54:11;;;;;;;2.10;2.00;;;10.30;91.50;;;12.51;67.76;100469.88;5017269;28;20187;-56
2023/01/11 02:56:44;;;;;;;2.80;2.30;;;10.40;91.50;;;12.62;67.47;100465.88;5017059;28;20195;-57
2023/01/11 02:59:17;;;;;;;2.43;1.93;;;10.40;91.40;;;12.77;66.98;100475.31;5014873;28;20211;-57
2023/01/11 03:01:48;;;;;;;2.40;2.20;;;10.50;91.40;;;12.88;66.89;100466.03;4998496;28;20180;-55
2023/01/11 03:09:21;;;;;;;2.57;2.37;;;10.60;91.40;;;12.65;67.38;100461.03;4992177;28;20230;-55
2023/01/11 03:15:15;;;;;;;2.33;2.23;;;10.60;91.20;;;12.84;67.18;100448.94;5018404;28;20271;-55
2023/01/11 03:18:05;;;;;;;2.27;2.13;;;10.70;91.20;;;12.93;67.08;100437.19;5019580;28;20294;-56
2023/01/11 03:20:39;;;;;;;2.73;2.20;;;10.70;91.20;;;13.06;66.77;100445.19;5018309;28;20191;-57
2023/01/11 03:23:17;;;;;;;2.83;1.70;;;10.70;91.30;;;13.00;67.63;100435.41;5020017;28;20246;-56
2023/01/11 03:25:58;;;;;;;2.63;1.87;;;10.80;91.50;;;13.02;67.15;100436.00;5000914;28;20200;-56
2023/01/11 03:28:35;;;;;;;2.13;1.73;;;10.80;91.50;;;13.08;67.22;100435.25;5001241;28;20216;-55
2023/01/11 03:31:14;;;;;;;1.97;1.87;;;10.80;91.50;;;12.97;67.63;100433.16;4999775;28;20195;-54
2023/01/11 03:33:54;;;;;;;2.70;1.80;;;10.80;91.70;;;12.96;67.99;100431.50;5002128;28;20695;-56
2023/01/11 03:36:29;;;;;;;3.23;2.10;;;10.80;91.70;;;13.02;67.85;100429.91;5020179;28;20179;-56
2023/01/11 03:39:08;;;;;;;2.00;1.90;;;10.80;91.70;;;13.01;68.01;100434.38;5019757;28;20214;-54
2023/01/11 03:41:40;;;;;;;2.33;1.80;;;10.80;91.90;;;13.02;68.22;100425.44;5018552;28;20214;-55
2023/01/11 03:44:11;;;;;;;1.97;1.87;;;10.80;92.00;;;12.96;68.85;100435.97;5021283;28;20218;-55
2023/01/11 03:46:47;;;;;;;2.13;1.77;;;10.80;92.10;;;12.98;68.69;100428.69;5039306;28;20190;-56
2023/01/11 03:49:23;;;;;;;2.90;1.90;;;10.80;92.20;;;12.83;69.21;100426.19;5038940;28;20210;-56
2023/01/11 03:51:53;;;;;;;2.20;1.83;;;10.70;92.30;;;12.80;69.52;100431.84;5040374;28;20174;-55
2023/01/11 03:54:25;;;;;;;2.07;1.83;;;10.70;92.30;;;12.85;69.35;100422.34;5033548;28;20199;-55
2023/01/11 03:57:02;;;;;;;2.83;2.20;;;10.70;92.40;;;12.88;69.23;100423.75;5015077;28;20211;-57
2023/01/11 03:59:29;;;;;;;2.50;1.97;;;10.80;92.80;;;12.89;69.38;100420.09;5014531;28;20218;-55
2023/01/11 04:01:58;;;;;;;2.37;2.20;;;10.80;92.50;;;12.93;69.22;100426.63;5013996;28;20690;-55
2023/01/11 04:04:27;;;;;;;2.07;1.87;;;10.80;92.50;;;12.99;69.05;100417.09;5021309;28;20214;-55
2023/01/11 04:06:55;;;;;;;2.13;2.00;;;10.80;92.50;;;12.93;69.57;100421.34;5021449;28;20191;-56
2023/01/11 04:09:22;;;;;;;2.27;2.10;;;10.70;92.60;;;12.92;69.60;100422.34;5014110;28;20215;-55
2023/01/11 04:11:49;;;;;;;1.90;1.80;;;10.70;92.60;;;13.01;69.16;100426.44;5014623;28;20206;-55
2023/01/11 04:14:16;;;;;;;2.27;2.10;;;10.80;92.60;;;13.06;69.03;100431.16;5015530;28;20198;-57
2023/01/11 04:16:43;;;;;;;1.73;1.63;;;10.80;92.60;;;13.13;68.99;100422.25;5014173;28;20187;-56
2023/01/11 04:19:09;;;;;;;2.20;2.00;;;10.80;92.60;;;13.17;68.72;100422.69;5013832;28;20215;-54
2023/01/11 04:21:38;;;;;;;2.33;2.13;;;10.80;92.60;;;13.15;68.92;100435.25;5013616;28;20207;-56
2023/01/11 04:24:05;;;;;;;1.70;1.60;;;10.80;92.60;;;13.20;68.57;100417.81;5017937;28;20195;-56
2023/01/11 04:26:32;;;;;;;1.83;1.73;;;10.80;92.60;;;13.21;68.81;100422.09;5033186;28;20221;-54
2023/01/11 04:28:59;;;;;;;1.83;1.73;;;10.80;92.70;;;13.08;69.28;100416.75;5033463;28;20211;-54
2023/01/11 04:31:26;;;;;;;2.03;1.70;;;10.80;92.90;;;13.04;69.81;100418.13;5033324;28;20190;-55
2023/01/11 04:33:53;;;;;;;1.87;1.77;;;10.80;92.90;;;13.12;69.27;100420.59;5033225;28;20223;-56
2023/01/11 04:36:20;;;;;;;1.80;1.70;;;10.80;92.90;;;13.15;69.37;100425.50;5032766;28;20204;-57
2023/01/11 04:38:49;;;;;;;2.17;1.73;;;10.80;93.00;;;13.17;69.46;100420.84;5032930;28;20216;-53
2023/01/11 04:44:01;;;;;;;2.10;2.00;;;10.90;93.20;;;13.14;69.78;100418.59;5033469;28;20178;-56
2023/01/11 04:46:28;;;;;;;2.23;2.03;;;10.80;93.30;;;13.15;69.91;100414.94;5032745;28;20329;-54
2023/01/11 04:48:55;;;;;;;1.87;1.77;;;10.80;93.30;;;13.08;70.46;100418.56;5032879;28;20226;-54
2023/01/11 04:51:22;;;;;;;1.80;1.70;;;10.90;93.50;;;13.06;70.85;100421.41;5033469;28;20552;-52
2023/01/11 04:53:51;;;;;;;1.50;1.40;;;10.90;93.50;;;13.17;70.29;100427.97;5014081;28;20252;-53
2023/01/11 04:56:18;;;;;;;1.67;1.57;;;10.90;93.50;;;13.28;69.80;100430.84;5013750;28;20203;-54
2023/01/11 04:58:45;;;;;;;1.90;1.80;;;11.00;93.40;;;13.32;70.03;100423.31;5013580;28;20219;-53
2023/01/11 05:01:16;;;;;;;1.60;1.50;;;11.00;93.50;;;13.31;69.98;100424.34;5013218;28;20646;-53
2023/01/11 05:03:44;;;;;;;1.97;1.87;;;11.00;93.50;;;13.31;70.03;100419.06;5013479;28;20640;-56
2023/01/11 05:06:13;;;;;;;2.40;2.20;;;11.00;93.50;;;13.36;70.07;100428.00;5013036;28;20258;-53
2023/01/11 05:08:44;;;;;;;1.70;1.60;;;11.00;93.50;;;13.46;69.72;100425.78;5013278;28;20206;-56
2023/01/11 05:11:14;;;;;;;1.57;1.50;;;11.10;93.50;;;13.53;69.49;100429.25;5013278;28;20187;-54
2023/01/11 05:13:41;;;;;;;2.00;1.80;;;11.10;93.50;;;13.58;69.37;100426.00;5015521;28;20188;-54
2023/01/11 05:16:11;;;;;;;1.70;1.60;;;11.10;93.50;;;13.57;69.33;100433.13;5033218;28;20188;-56
2023/01/11 05:18:39;;;;;;;1.63;1.53;;;11.20;93.50;;;13.53;69.71;100439.00;5032699;28;20234;-54
2023/01/11 05:21:07;;;;;;;1.70;1.40;;;11.20;93.50;;;13.61;68.99;100430.09;5032815;28;20286;-56
2023/01/11 05:23:35;;;;;;;1.80;1.70;;;11.20;93.40;;;13.66;69.34;100422.34;5032708;28;20562;-55
2023/01/11 05:26:04;;;;;;;1.50;1.40;;;11.30;93.50;;;13.79;68.98;100427.63;5032826;28;20589;-57
2023/01/11 05:28:33;;;;;;;1.70;1.60;;;11.30;93.30;;;13.74;69.03;100430.09;5032685;28;20694;-56
2023/01/11 05:31:00;;;;;;;2.50;1.57;;;11.30;93.50;;;13.69;69.39;100437.84;5033029;28;20210;-53
2023/01/11 05:33:28;;;;;;;1.70;1.60;;;11.30;93.40;;;13.79;69.32;100438.22;5033382;28;20190;-54
2023/01/11 05:36:00;;;;;;;2.03;1.93;;;11.40;93.40;;;13.73;69.43;100433.75;5032618;28;20228;-54
2023/01/11 05:38:28;;;;;;;1.73;1.70;;;11.40;93.40;;;13.77;69.32;100427.03;5032338;28;20223;-55
2023/01/11 05:40:57;;;;;;;1.83;1.73;;;11.40;93.40;;;13.68;69.58;100429.06;5016546;28;20219;-53
2023/01/11 05:43:26;;;;;;;1.67;1.57;;;11.40;93.40;;;13.66;69.99;100438.22;5011160;28;20554;-57
2023/01/11 05:45:55;;;;;;;1.43;1.30;;;11.40;93.40;;;13.77;69.71;100434.97;5013112;28;20199;-54
2023/01/11 05:48:23;;;;;;;2.40;1.67;;;11.40;93.30;;;13.73;69.74;100428.47;5018938;28;20226;-54
2023/01/11 05:50:51;;;;;;;1.80;1.70;;;11.40;93.40;;;13.79;69.59;100427.63;5033196;28;20187;-55
2023/01/11 05:53:22;;;;;;;1.30;1.27;;;11.50;93.30;;;13.92;69.16;100444.34;5033106;28;20191;-54
2023/01/11 05:55:54;;;;;;;2.10;2.00;;;11.50;93.20;;;14.03;68.78;100435.78;5020964;28;20191;-57
2023/01/11 05:58:22;;;;;;;2.13;2.03;;;11.50;93.20;;;14.05;68.62;100443.53;5034995;28;20241;-57
2023/01/11 06:00:52;;;;;;;2.10;2.00;;;11.50;93.20;;;14.07;68.70;100444.16;5035849;28;20261;-55
2023/01/11 06:03:21;;;;;;;2.30;2.10;;;11.60;93.20;;;14.05;68.85;100448.81;5035205;28;20538;-54
2023/01/11 06:05:50;;;;;;;2.40;2.30;;;11.60;93.10;;;14.00;68.93;100457.38;5034654;28;20281;-52
2023/01/11 06:08:18;;;;;;;2.27;2.07;;;11.60;93.20;;;14.05;69.11;100454.09;5036105;28;20214;-56
2023/01/11 06:10:51;;;;;;;2.20;2.00;;;11.70;93.20;;;14.13;68.58;100461.84;5035583;28;20205;-58
2023/01/11 06:13:27;;;;;;;2.50;2.30;;;11.70;93.20;;;14.18;68.39;100459.41;5035545;28;20659;-54
2023/01/11 06:16:01;;;;;;;2.27;2.17;;;11.70;93.20;;;14.21;68.58;100459.81;5020286;28;20203;-54
2023/01/11 06:18:33;;;;;;;3.63;2.73;;;11.70;93.20;;;14.28;68.32;100454.53;5015671;28;20214;-57
2023/01/11 06:21:00;;;;;;;2.70;2.50;;;11.70;93.10;;;14.24;68.55;100463.88;5015780;28;20579;-53
2023/01/11 06:23:30;;;;;;;4.07;3.67;;;11.70;93.20;;;14.28;68.28;100465.13;5015732;28;20241;-57
2023/01/11 06:26:01;;;;;;;3.00;2.80;;;11.80;93.20;;;14.34;68.22;100463.50;5034919;28;20718;-57
2023/01/11 06:28:28;;;;;;;2.87;2.67;;;11.80;93.20;;;14.37;68.23;100463.91;5035198;28;20655;-55
2023/01/11 06:30:57;;;;;;;2.83;2.70;;;11.80;93.20;;;14.37;68.20;100453.31;5035491;28;20182;-54
2023/01/11 06:33:26;;;;;;;3.10;2.90;;;11.80;93.20;;;14.39;68.17;100461.88;5035289;28;20559;-55
2023/01/11 06:35:57;;;;;;;2.90;2.70;;;11.80;93.20;;;14.39;68.48;100456.56;5017201;28;20616;-56
2023/01/11 06:38:25;;;;;;;2.93;2.77;;;11.90;93.20;;;14.45;68.26;100454.94;5015632;28;20215;-54
2023/01/11 06:40:55;;;;;;;2.97;2.80;;;11.90;93.20;;;14.47;67.99;100458.19;5014832;28;20221;-54
2023/01/11 06:43:23;;;;;;;3.17;2.97;;;11.90;93.20;;;14.52;68.00;100453.09;5014819;28;20191;-57
2023/01/11 06:45:50;;;;;;;2.60;2.50;;;11.90;93.20;;;14.55;67.97;100450.81;5031327;28;20214;-56
2023/01/11 06:48:19;;;;;;;5.30;4.90;;;11.90;93.20;;;14.61;67.79;100460.59;5034309;28;20214;-57
2023/01/11 06:50:47;;;;;;;3.20;3.00;;;11.90;93.20;;;14.63;67.69;100466.50;5034942;28;20199;-55
2023/01/11 06:53:16;;;;;;;3.30;3.00;;;12.00;93.20;;;14.67;67.53;100470.34;5034757;28;20769;-57
2023/01/11 06:55:43;;;;;;;2.80;2.60;;;12.00;93.20;;;14.65;67.65;100480.34;5023818;28;20567;-56
2023/01/11 06:58:10;;;;;;;2.90;2.70;;;12.00;93.20;;;14.67;67.85;100475.66;5034617;28;20211;-55
2023/01/11 07:00:37;;;;;;;3.20;3.00;;;12.10;93.20;;;14.69;67.74;100484.22;5034603;28;20296;-56
2023/01/11 07:03:05;;;;;;;3.00;2.80;;;12.10;93.20;;;14.74;67.54;100471.16;5034004;28;20252;-55
2023/01/11 07:05:34;;;;;;;2.97;2.87;;;12.10;93.20;;;14.79;67.39;100486.44;5019040;28;20203;-55
2023/01/11 07:08:02;;;;;;;3.60;3.40;;;12.10;93.10;;;14.77;67.50;100475.22;5013520;28;20234;-55
2023/01/11 07:10:31;;;;;;;3.23;3.03;;;12.10;93.10;;;14.82;67.45;100473.59;5014250;28;20258;-54
2023/01/11 07:12:58;;;;;;;3.20;3.00;;;12.10;93.10;;;14.82;67.46;100470.94;5014561;28;20206;-56
2023/01/11 07:15:25;;;;;;;3.57;3.33;;;12.20;93.10;;;14.83;67.23;100472.56;5027453;28;20194;-56
2023/01/11 07:17:54;;;;;;;4.33;4.03;;;12.20;93.10;;;14.83;67.36;100479.72;5034384;28;20718;-55
2023/01/11 07:20:22;;;;;;;4.10;3.80;;;12.10;93.00;;;14.80;67.63;100486.25;5034133;28;20576;-56
2023/01/11 07:22:49;;;;;;;4.07;3.77;;;12.20;93.00;;;14.81;67.74;100492.31;5034808;28;20203;-55
2023/01/11 07:25:16;;;;;;;3.90;3.60;;;12.20;92.90;;;14.86;67.29;100495.16;5021703;28;20200;-55
2023/01/11 07:27:44;;;;;;;3.37;3.17;;;12.30;93.00;;;14.90;67.42;100491.88;5014166;28;20547;-57
2023/01/11 07:30:12;;;;;;;4.10;3.63;;;12.30;93.00;;;14.96;67.15;100487.59;5026102;28;20675;-55
2023/01/11 07:32:39;;;;;;;3.93;3.73;;;12.30;93.30;;;15.03;67.00;100484.94;5050383;28;20195;-55
2023/01/11 07:35:07;;;;;;;4.73;4.40;;;12.30;93.00;;;15.08;66.82;100488.59;5033713;28;20300;-56
2023/01/11 07:37:36;;;;;;;4.80;4.50;;;12.30;93.00;;;15.10;66.71;100496.31;5034727;28;20291;-54
2023/01/11 07:40:05;;;;;;;4.40;4.10;;;12.30;93.00;;;15.11;66.51;100503.25;5034825;28;20214;-55
2023/01/11 07:45:19;;;;;;;5.30;4.90;;;12.40;92.90;;;14.99;67.20;100499.63;5013642;28;20213;-55
2023/01/11 07:47:49;;;;;;;5.10;4.67;;;12.40;92.80;;;14.99;66.95;100515.53;5013744;28;20243;-55
2023/01/11 07:50:16;;;;;;;4.17;3.87;;;12.40;92.80;;;15.00;67.34;100506.56;5014519;28;20198;-57
2023/01/11 07:52:46;;;;;;;5.67;5.17;;;12.40;92.80;;;14.91;67.18;100498.84;5013596;28;20225;-54
2023/01/11 07:55:13;;;;;;;4.97;4.67;;;12.40;92.80;;;14.81;67.59;100511.69;5015534;28;20278;-55
2023/01/11 07:57:40;;;;;;;4.67;4.37;;;12.40;92.80;;;14.86;67.58;100550.81;5033589;28;20214;-57
2023/01/11 08:00:09;;;;;;;4.83;4.43;;;12.40;92.70;;;14.97;67.21;100570.59;5034133;28;20210;-54
2023/01/11 08:02:38;;;;;;;4.10;3.80;;;12.40;92.80;;;15.03;67.07;100559.13;5035210;28;20199;-56
2023/01/11 08:05:06;;;;;;;3.63;3.33;;;12.40;92.80;;;15.11;66.92;100564.22;5025304;28;20191;-53
2023/01/11 08:07:33;;;;;;;3.03;2.73;;;12.40;92.80;;;15.15;66.67;100568.09;5013775;28;20294;-56
2023/01/11 08:10:01;;;;;;;2.50;2.30;;;12.40;92.70;;;15.17;66.07;100566.84;5013669;28;20242;-55
2023/01/11 08:15:17;;;;;;;2.83;2.00;;;12.40;92.40;;;15.20;66.09;100555.03;5024246;28;20281;-55
2023/01/11 08:17:45;;;;;;;6.23;2.20;;;12.40;92.10;;;15.19;65.48;100566.66;5033884;28;20210;-58
2023/01/11 08:20:12;;;;;;;4.37;2.37;;;12.40;92.00;;;15.18;65.38;100563.19;5032222;28;20215;-54
2023/01/11 08:22:39;;;;;;;3.37;3.07;;;12.30;91.70;;;15.17;65.18;100566.03;5033496;28;20198;-55
2023/01/11 08:25:07;;;;;;;3.23;2.23;;;12.30;91.80;;;15.17;65.30;100572.16;5032259;28;20586;-55
2023/01/11 08:27:34;;;;;;;4.30;2.50;;;12.30;91.90;;;15.20;65.33;100576.22;5033282;28;20214;-57
2023/01/11 08:30:01;;;;;;;2.27;1.73;;;12.30;92.00;;;15.22;65.20;100582.97;5032866;28;20209;-55
2023/01/11 08:32:28;;;;;;;5.47;1.33;;;12.30;91.90;;;15.18;64.83;100584.41;5033295;28;20193;-56
2023/01/11 08:34:56;;;;;;;5.33;2.00;;;12.30;91.70;;;15.16;64.94;100590.94;5032354;28;20190;-55
2023/01/11 08:37:23;;;;;;;3.73;1.73;;;12.30;91.50;;;15.10;64.62;100581.97;5024831;28;20636;-55
2023/01/11 08:39:50;;;;;;;3.87;1.87;;;12.30;91.60;;;15.08;64.50;100588.50;5013368;28;20206;-58
2023/01/11 08:42:17;;;;;;;4.83;1.90;;;12.20;91.50;;;15.05;64.46;100592.38;5013335;28;20223;-56
2023/01/11 08:44:44;;;;;;;3.77;2.00;;;12.20;91.50;;;15.03;64.75;100575.03;5013468;28;20195;-57
2023/01/11 08:47:12;;;;;;;3.00;1.90;;;12.20;91.50;;;15.03;64.73;100581.16;5013248;28;20218;-55
2023/01/11 08:49:41;;;;;;;2.43;1.47;;;12.10;91.60;;;15.04;64.58;100582.00;5013046;28;20305;-56
2023/01/11 08:52:15;;;;;;;3.63;1.77;;;12.10;91.70;;;15.02;64.47;100581.38;5013060;28;20551;-56
2023/01/11 08:54:42;;;;;;;3.37;1.97;;;12.10;91.60;;;14.99;64.44;100574.66;5019168;28;20552;-57
2023/01/11 08:57:09;;;;;;;3.67;2.00;;;12.10;91.70;;;14.98;64.87;100562.41;5032495;28;20194;-56
2023/01/11 08:59:36;;;;;;;3.30;1.90;;;12.10;91.70;;;14.99;64.43;100560.59;5033188;28;20265;-57
2023/01/11 09:02:05;;;;;;;5.43;1.90;;;12.20;91.70;;;14.96;64.20;100563.66;5024642;28;20238;-56
2023/01/11 09:04:32;;;;;;;3.00;2.10;;;12.20;91.50;;;14.93;64.25;100571.00;5033276;28;20622;-58
2023/01/11 09:07:01;;;;;;;4.93;2.03;;;12.10;91.50;;;14.90;64.31;100567.97;5020309;28;20249;-56
2023/01/11 09:09:30;;;;;;;4.07;2.10;;;12.20;91.50;;;14.87;64.45;100582.44;5018804;28;20211;-53
2023/01/11 09:11:59;;;;;;;4.33;2.30;;;12.20;91.50;;;14.84;64.33;100580.19;5024013;28;20195;-53
2023/01/11 09:14:27;;;;;;;3.30;2.07;;;12.20;91.40;;;14.83;64.55;100591.78;5020981;28;20216;-51
2023/01/11 09:16:55;;;;;;;4.27;2.00;;;12.10;91.40;;;14.82;64.66;100598.13;5014201;28;20202;-55
2023/01/11 09:19:23;;;;;;;3.33;2.20;;;12.10;91.50;;;14.82;64.64;100619.34;5027594;28;20202;-54
2023/01/11 09:21:50;;;;;;;5.43;3.40;;;12.10;91.50;;;14.85;64.56;100624.22;5028180;28;20215;-56
2023/01/11 09:24:18;;;;;;;4.33;2.47;;;12.10;91.60;;;14.88;64.68;100613.19;5028280;28;20206;-56
2023/01/11 09:26:47;;;;;;;6.83;2.30;;;12.10;91.60;;;14.91;64.76;100619.94;5016984;28;20265;-54
2023/01/11 09:29:14;;;;;;;4.40;2.20;;;12.10;91.70;;;14.90;64.67;100613.81;5022231;28;20218;-56
2023/01/11 09:31:41;;;;;;;3.23;2.07;;;12.10;91.60;;;14.92;64.54;100610.97;5032292;28;20285;-55
2023/01/11 09:34:11;;;;;;;2.93;1.80;;;12.20;91.60;;;14.93;64.59;100608.09;5026695;28;20214;-55
2023/01/11 09:36:39;;;;;;;4.50;2.10;;;12.10;91.60;;;14.95;64.63;100607.09;5033997;28;20253;-52
2023/01/11 09:39:10;;;;;;;4.00;2.40;;;12.20;91.70;;;14.99;64.63;100610.94;5027008;28;20211;-54
2023/01/11 09:42:04;;;;;;;4.73;2.10;;;12.20;91.70;;;14.96;64.43;100606.06;5024109;28;20215;-53
2023/01/11 09:44:36;;;;;;;4.97;2.60;;;12.20;91.70;;;15.02;64.48;100615.84;5026809;28;20216;-54
2023/01/11 09:47:18;;;;;;;3.47;2.43;;;12.20;91.70;;;15.02;64.49;100632.56;5032361;28;20558;-55
2023/01/11 09:49:55;;;;;;;5.40;2.93;;;12.20;91.70;;;15.02;64.49;100632.56;5022807;28;20600;-55
2023/01/11 09:52:35;;;;;;;3.23;2.93;;;12.30;91.70;;;15.03;64.47;100641.31;5014951;28;20187;-53
2023/01/11 09:55:02;;;;;;;4.50;2.37;;;12.30;91.70;;;15.05;64.67;100626.03;5023138;28;20194;-54
2023/01/11 09:57:52;;;;;;;3.53;3.00;;;12.30;91.70;;;15.07;64.74;100630.09;5033913;28;20234;-54
2023/01/11 10:00:35;;;;;;;4.27;2.97;;;12.30;91.80;;;15.12;64.35;100643.53;5032264;28;20274;-53
2023/01/11 10:04:02;;;;;;;5.10;4.00;;;12.30;91.80;;;15.06;64.93;100646.22;5034282;28;20191;-53
2023/01/11 10:06:43;;;;;;;5.47;3.93;;;12.40;91.80;;;15.07;65.03;100640.69;5020878;28;20215;-54
2023/01/11 10:09:29;;;;;;;4.53;3.97;;;12.40;91.70;;;15.12;64.87;100645.41;5021215;28;20286;-53
2023/01/11 10:12:30;;;;;;;5.80;4.57;;;12.40;91.80;;;15.12;65.10;100640.91;5026524;28;20222;-53
2023/01/11 10:15:31;;;;;;;4.77;4.17;;;12.40;91.90;;;15.15;65.07;100644.97;5022470;28;20199;-55
2023/01/11 10:18:44;;;;;;;6.57;4.87;;;12.50;91.90;;;15.19;65.13;100646.22;5028182;28;20258;-54
2023/01/11 10:21:42;;;;;;;6.10;5.40;;;12.50;92.00;;;15.23;65.37;100639.47;5019499;28;20222;-56
2023/01/11 10:24:22;;;;;;;7.03;4.63;;;12.50;91.90;;;15.29;65.12;100643.94;5031856;28;20194;-55
2023/01/11 10:26:56;;;;;;;7.43;6.20;;;12.60;92.00;;;15.37;64.83;100636.59;5022466;28;20188;-52
2023/01/11 10:29:44;;;;;;;6.33;5.27;;;12.50;92.10;;;15.42;65.00;100633.31;5029994;28;20720;-53
2023/01/11 10:32:52;;;;;;;7.00;6.30;;;12.60;92.10;;;15.47;64.93;100641.47;5033520;28;20199;-55
2023/01/11 10:35:44;;;;;;;5.73;5.10;;;12.60;92.10;;;15.49;64.89;100639.44;5021332;28;20199;-54
2023/01/11 10:38:39;;;;;;;6.50;5.20;;;12.70;92.00;;;15.55;64.86;100633.28;5026639;28;20340;-52
2023/01/11 10:41:20;;;;;;;6.87;4.97;;;12.70;92.10;;;15.66;64.68;100635.28;5019996;28;20277;-56
2023/01/11 10:44:03;;;;;;;5.57;5.03;;;12.80;92.10;;;15.73;64.59;100636.09;5024306;28;20206;-57
2023/01/11 10:46:35;;;;;;;7.13;6.20;;;12.80;92.10;;;15.80;64.56;100642.19;5024937;28;20270;-58
2023/01/11 10:49:42;;;;;;;7.27;5.27;;;12.80;92.10;;;15.80;64.64;100626.25;5017010;28;20726;-57
2023/01/11 10:52:34;;;;;;;8.60;6.57;;;12.90;92.10;;;15.86;64.47;100625.41;5031163;28;20187;-57
2023/01/11 10:55:12;;;;;;;6.77;5.60;;;13.00;92.10;;;15.97;64.41;100635.38;5031603;28;20190;-60
2023/01/11 10:57:59;;;;;;;7.47;6.50;;;13.00;92.10;;;15.99;63.90;100635.97;5044055;28;20225;-56
2023/01/11 11:00:40;;;;;;;8.50;7.03;;;13.10;92.00;;;15.97;63.71;100637.19;5028886;28;20264;-57
2023/01/11 11:03:53;;;;;;;6.90;6.30;;;13.10;91.70;;;15.93;64.68;100647.41;5034683;28;20175;-53